Terminal Aerodrome Forecast
Issued by NWS

Home | Current Version | Previous Version | Text Only | Print | Product List | Glossary On
Versions: 1 2 3 4 5 6 7 8 9 10 11 12 13
000
FTUS45 KRIW 241742
TAFBPI
TAF
KBPI 241742Z 2418/2518 15006KT P6SM SKC
     FM242200 29010KT P6SM FEW100 SCT150
     FM250100 36010KT P6SM SCT100
     FM250500 07007KT P6SM BKN100
     FM251200 15007KT P6SM SCT050 BKN100=

USA.gov is the U.S. government's official web portal to all federal, state and local government web resources and services.